createdAt,value
2022-10-08T00:01:30.681Z,100.00
2022-10-08T00:03:59.682Z,100.00
2022-10-08T00:06:30.225Z,100.00
2022-10-08T00:09:02.418Z,100.00
2022-10-08T00:11:33.336Z,100.00
2022-10-08T00:14:02.548Z,100.00
2022-10-08T00:16:37.037Z,100.00
2022-10-08T00:19:16.242Z,100.00
2022-10-08T00:21:48.298Z,100.00
2022-10-08T00:24:18.904Z,100.00
2022-10-08T00:26:46.415Z,100.00
2022-10-08T00:29:17.857Z,100.00
2022-10-08T00:31:47.382Z,100.00
2022-10-08T00:34:24.790Z,100.00
2022-10-08T00:36:54.929Z,100.00
2022-10-08T00:39:24.810Z,100.00
2022-10-08T00:41:55.019Z,100.00
2022-10-08T00:44:51.613Z,100.00
2022-10-08T00:47:34.870Z,100.00
2022-10-08T00:50:09.211Z,100.00
2022-10-08T00:52:42.589Z,100.00
2022-10-08T00:55:14.197Z,100.00
2022-10-08T00:57:43.870Z,100.00
2022-10-08T01:00:18.338Z,100.00
2022-10-08T01:02:46.707Z,100.00
2022-10-08T01:05:17.736Z,100.00
2022-10-08T01:07:54.248Z,100.00
2022-10-08T01:10:31.143Z,100.00
2022-10-08T01:13:08.027Z,100.00
2022-10-08T01:15:43.148Z,100.00
2022-10-08T01:18:15.896Z,100.00
2022-10-08T01:21:03.338Z,100.00
2022-10-08T01:24:15.342Z,100.00
2022-10-08T01:26:46.315Z,100.00
2022-10-08T01:29:25.530Z,100.00
2022-10-08T01:32:01.916Z,100.00
2022-10-08T01:34:41.013Z,100.00
2022-10-08T01:37:13.016Z,100.00
2022-10-08T01:39:44.265Z,100.00
2022-10-08T01:42:15.908Z,100.00
2022-10-08T01:44:54.417Z,100.00
2022-10-08T01:47:28.011Z,100.00
2022-10-08T01:50:01.282Z,100.00
2022-10-08T01:52:37.587Z,100.00
2022-10-08T01:55:15.152Z,100.00
2022-10-08T01:57:45.550Z,100.00
2022-10-08T02:00:15.322Z,100.00
2022-10-08T02:02:43.665Z,100.00
2022-10-08T02:05:12.407Z,100.00
2022-10-08T02:07:42.534Z,100.00
2022-10-08T02:10:19.282Z,100.00
2022-10-08T02:12:48.214Z,100.00
2022-10-08T02:15:30.409Z,100.00
2022-10-08T02:18:14.139Z,100.00
2022-10-08T02:20:44.523Z,100.00
2022-10-08T02:23:38.990Z,100.00
2022-10-08T02:26:10.472Z,100.00
2022-10-08T02:29:01.938Z,100.00
2022-10-08T02:31:45.587Z,100.00
2022-10-08T02:34:22.909Z,100.00
2022-10-08T02:37:33.693Z,100.00
2022-10-08T02:40:06.766Z,100.00
2022-10-08T02:42:41.335Z,100.00
2022-10-08T02:45:13.824Z,100.00
2022-10-08T02:47:45.606Z,100.00
2022-10-08T02:50:19.287Z,100.00
2022-10-08T02:52:49.231Z,100.00
2022-10-08T02:55:26.291Z,100.00
2022-10-08T02:58:00.963Z,100.00
2022-10-08T03:00:38.944Z,100.00
2022-10-08T03:03:20.574Z,100.00
2022-10-08T03:05:53.883Z,100.00
2022-10-08T03:08:22.572Z,100.00
2022-10-08T03:10:50.778Z,100.00
2022-10-08T03:13:18.621Z,100.00
2022-10-08T03:15:48.724Z,100.00
2022-10-08T03:18:17.124Z,100.00
2022-10-08T03:20:47.656Z,100.00
2022-10-08T03:23:18.634Z,100.00
2022-10-08T03:25:46.101Z,100.00
2022-10-08T03:28:14.058Z,100.00
2022-10-08T03:30:41.646Z,100.00
2022-10-08T03:33:09.200Z,100.00
2022-10-08T03:35:39.628Z,100.00
2022-10-08T03:38:08.676Z,100.00
2022-10-08T03:40:36.046Z,100.00
2022-10-08T03:43:03.407Z,100.00
2022-10-08T03:45:30.627Z,100.00
2022-10-08T03:47:59.057Z,100.00
2022-10-08T03:50:29.094Z,100.00
2022-10-08T03:52:56.523Z,100.00
2022-10-08T03:55:23.742Z,100.00
2022-10-08T03:57:53.266Z,100.00
2022-10-08T04:00:21.009Z,100.00
2022-10-08T04:02:51.175Z,100.00
2022-10-08T04:05:19.385Z,100.00
2022-10-08T04:07:47.355Z,100.00
2022-10-08T04:10:14.782Z,100.00
2022-10-08T04:12:43.606Z,100.00
2022-10-08T04:15:12.132Z,100.00
2022-10-08T04:17:41.747Z,100.00
2022-10-08T04:20:09.639Z,100.00
2022-10-08T04:22:37.781Z,100.00
2022-10-08T04:25:05.165Z,100.00
2022-10-08T04:27:34.348Z,100.00
2022-10-08T04:30:02.490Z,100.00
2022-10-08T04:32:31.131Z,100.00
2022-10-08T04:34:58.509Z,100.00
2022-10-08T04:37:29.222Z,100.00
2022-10-08T04:39:56.591Z,100.00
2022-10-08T04:42:24.851Z,100.00
2022-10-08T04:44:53.054Z,100.00
2022-10-08T04:47:20.556Z,100.00
2022-10-08T04:49:47.975Z,100.00
2022-10-08T04:52:17.376Z,100.00
2022-10-08T04:54:45.135Z,100.00
2022-10-08T04:57:13.310Z,100.00
2022-10-08T04:59:53.905Z,100.00
2022-10-08T05:02:32.319Z,100.00
2022-10-08T05:04:59.827Z,100.00
2022-10-08T05:07:29.402Z,100.00
2022-10-08T05:09:59.002Z,100.00
2022-10-08T05:12:27.271Z,100.00
2022-10-08T05:14:54.734Z,100.00
2022-10-08T05:17:22.127Z,100.00
2022-10-08T05:19:50.105Z,100.00
2022-10-08T05:22:17.495Z,100.00
2022-10-08T05:24:46.255Z,100.00
2022-10-08T05:27:13.595Z,100.00
2022-10-08T05:29:41.801Z,100.00
2022-10-08T05:32:10.406Z,100.00
2022-10-08T05:34:37.806Z,100.00
2022-10-08T05:37:05.038Z,100.00
2022-10-08T05:39:33.515Z,100.00
2022-10-08T05:42:00.903Z,100.00
2022-10-08T05:44:29.572Z,100.00
2022-10-08T05:46:57.485Z,100.00
2022-10-08T05:49:26.646Z,100.00
2022-10-08T05:51:54.079Z,100.00
2022-10-08T05:54:23.460Z,100.00
2022-10-08T05:56:51.496Z,100.00
2022-10-08T05:59:22.975Z,100.00
2022-10-08T06:02:01.648Z,100.00
2022-10-08T06:04:31.819Z,100.00
2022-10-08T06:06:59.274Z,100.00
2022-10-08T06:09:28.196Z,100.00
2022-10-08T06:11:55.598Z,100.00
2022-10-08T06:14:24.452Z,100.00
2022-10-08T06:16:51.854Z,100.00
2022-10-08T06:19:20.310Z,100.00
2022-10-08T06:21:47.740Z,100.00
2022-10-08T06:24:16.670Z,100.00
2022-10-08T06:26:44.587Z,100.00
2022-10-08T06:29:16.314Z,100.00
2022-10-08T06:31:44.861Z,100.00
2022-10-08T06:34:15.503Z,100.00
2022-10-08T06:36:42.902Z,100.00
2022-10-08T06:39:14.570Z,100.00
2022-10-08T06:41:43.474Z,100.00
2022-10-08T06:44:13.689Z,100.00
2022-10-08T06:46:42.831Z,100.00
2022-10-08T06:49:12.018Z,100.00
2022-10-08T06:51:40.458Z,100.00
2022-10-08T06:54:09.339Z,100.00
2022-10-08T06:56:38.527Z,100.00
2022-10-08T06:59:06.489Z,100.00
2022-10-08T07:01:36.310Z,100.00
2022-10-08T07:04:05.471Z,100.00
2022-10-08T07:06:33.255Z,100.00
2022-10-08T07:09:04.026Z,100.00
2022-10-08T07:11:33.796Z,100.00
2022-10-08T07:14:01.444Z,100.00
2022-10-08T07:16:30.286Z,100.00
2022-10-08T07:19:00.320Z,100.00
2022-10-08T07:21:30.133Z,100.00
2022-10-08T07:23:59.919Z,100.00
2022-10-08T07:26:33.235Z,100.00
2022-10-08T07:29:05.690Z,100.00
2022-10-08T07:31:36.614Z,100.00
2022-10-08T07:34:10.101Z,100.00
2022-10-08T07:36:39.413Z,100.00
2022-10-08T07:39:11.724Z,100.00
2022-10-08T07:41:39.203Z,100.00
2022-10-08T07:44:08.214Z,100.00
2022-10-08T07:46:37.691Z,100.00
2022-10-08T07:49:05.253Z,100.00
2022-10-08T07:51:34.931Z,100.00
2022-10-08T07:54:05.573Z,100.00
2022-10-08T07:56:35.334Z,98.52
2022-10-08T07:59:03.946Z,92.70
2022-10-08T08:01:35.309Z,88.39
2022-10-08T08:04:10.074Z,85.46
2022-10-08T08:06:42.212Z,84.36
2022-10-08T08:09:10.538Z,83.12
2022-10-08T08:11:40.049Z,82.93
2022-10-08T08:14:08.934Z,80.95
2022-10-08T08:16:37.229Z,80.80
2022-10-08T08:19:05.368Z,78.09
2022-10-08T08:21:36.844Z,74.63
2022-10-08T08:24:07.675Z,69.55
2022-10-08T08:26:38.038Z,65.19
2022-10-08T08:29:09.287Z,60.68
2022-10-08T08:31:41.077Z,57.51
2022-10-08T08:34:11.577Z,56.73
2022-10-08T08:36:41.510Z,55.36
2022-10-08T08:39:15.095Z,54.54
2022-10-08T08:42:00.340Z,52.59
2022-10-08T08:44:36.587Z,52.28
2022-10-08T08:47:21.724Z,52.01
2022-10-08T08:49:52.789Z,51.51
2022-10-08T08:52:26.670Z,51.43
2022-10-08T08:54:55.220Z,51.93
2022-10-08T08:57:57.456Z,50.27
2022-10-08T09:00:37.012Z,49.93
2022-10-08T09:03:22.480Z,48.47
2022-10-08T09:05:56.668Z,47.93
2022-10-08T09:08:38.019Z,46.91
2022-10-08T09:11:07.095Z,46.68
2022-10-08T09:13:40.213Z,46.67
2022-10-08T09:16:12.664Z,45.89
2022-10-08T09:18:49.669Z,46.53
2022-10-08T09:21:18.903Z,46.77
2022-10-08T09:23:47.030Z,47.58
2022-10-08T09:26:15.586Z,49.01
2022-10-08T09:28:49.081Z,50.72
2022-10-08T09:31:32.730Z,51.75
2022-10-08T09:34:15.798Z,52.73
2022-10-08T09:36:49.463Z,53.01
2022-10-08T09:39:29.580Z,52.18
2022-10-08T09:42:07.893Z,49.98
2022-10-08T09:44:50.318Z,49.71
2022-10-08T09:47:19.298Z,50.52
2022-10-08T09:50:01.576Z,50.11
2022-10-08T09:52:30.244Z,50.40
2022-10-08T09:55:20.100Z,51.28
2022-10-08T09:57:52.486Z,51.30
2022-10-08T10:01:03.576Z,52.14
2022-10-08T10:03:36.891Z,51.54
2022-10-08T10:06:09.451Z,50.98
2022-10-08T10:08:47.203Z,48.64
2022-10-08T10:11:22.178Z,49.53
2022-10-08T10:13:51.897Z,51.05
2022-10-08T10:16:42.418Z,52.10
2022-10-08T10:19:22.412Z,51.36
2022-10-08T10:22:01.218Z,50.82
2022-10-08T10:24:35.955Z,50.35
2022-10-08T10:27:26.735Z,51.10
2022-10-08T10:30:20.039Z,51.55
2022-10-08T10:33:03.281Z,52.21
2022-10-08T10:35:33.102Z,52.52
2022-10-08T10:38:08.903Z,51.28
2022-10-08T10:40:55.968Z,49.18
2022-10-08T10:43:45.290Z,46.20
2022-10-08T10:46:19.518Z,45.48
2022-10-08T10:48:47.093Z,45.80
2022-10-08T10:51:35.217Z,46.37
2022-10-08T10:54:14.127Z,46.34
2022-10-08T10:57:01.548Z,47.94
2022-10-08T10:59:47.486Z,48.05
2022-10-08T11:02:26.183Z,47.28
2022-10-08T11:05:20.652Z,46.01
2022-10-08T11:08:17.652Z,46.32
2022-10-08T11:10:57.695Z,47.20
2022-10-08T11:13:44.377Z,47.25
2022-10-08T11:16:12.521Z,47.16
2022-10-08T11:18:58.741Z,47.60
2022-10-08T11:21:54.129Z,47.59
2022-10-08T11:24:24.872Z,45.11
2022-10-08T11:27:30.820Z,44.32
2022-10-08T11:30:14.998Z,43.83
2022-10-08T11:32:52.828Z,43.47
2022-10-08T11:35:34.916Z,42.69
2022-10-08T11:38:33.107Z,44.78
2022-10-08T11:41:07.736Z,45.62
2022-10-08T11:43:46.547Z,44.20
2022-10-08T11:46:21.777Z,44.88
2022-10-08T11:48:50.833Z,45.26
2022-10-08T11:51:20.891Z,45.61
2022-10-08T11:54:22.742Z,46.73
2022-10-08T11:56:53.053Z,46.54
2022-10-08T11:59:32.660Z,46.60
2022-10-08T12:02:04.797Z,47.66
2022-10-08T12:04:38.222Z,48.21
2022-10-08T12:07:22.930Z,47.54
2022-10-08T12:10:06.286Z,47.83
2022-10-08T12:12:49.302Z,46.68
2022-10-08T12:15:24.006Z,45.50
2022-10-08T12:17:56.816Z,44.59
2022-10-08T12:20:27.338Z,43.55
2022-10-08T12:23:03.151Z,43.57
2022-10-08T12:25:37.477Z,44.59
2022-10-08T12:28:35.374Z,44.04
2022-10-08T12:31:26.497Z,44.19
2022-10-08T12:34:00.393Z,44.51
2022-10-08T12:36:36.650Z,44.66
2022-10-08T12:39:26.028Z,45.05
2022-10-08T12:42:06.529Z,45.30
2022-10-08T12:44:41.279Z,44.68
2022-10-08T12:47:20.602Z,45.30
2022-10-08T12:50:04.922Z,44.75
2022-10-08T12:52:37.347Z,44.36
2022-10-08T12:55:17.028Z,42.76
2022-10-08T12:57:48.645Z,42.31
2022-10-08T13:00:25.876Z,42.00
2022-10-08T13:03:00.954Z,42.36
2022-10-08T13:05:31.055Z,43.09
2022-10-08T13:07:59.241Z,41.25
2022-10-08T13:10:30.393Z,41.17
2022-10-08T13:13:03.314Z,41.97
2022-10-08T13:15:35.359Z,42.95
2022-10-08T13:18:15.232Z,43.18
2022-10-08T13:21:02.795Z,43.00
2022-10-08T13:23:39.751Z,43.02
2022-10-08T13:26:41.863Z,42.91
2022-10-08T13:29:22.811Z,41.98
2022-10-08T13:32:14.426Z,41.24
2022-10-08T13:34:46.505Z,41.93
2022-10-08T13:37:36.820Z,40.56
2022-10-08T13:40:18.162Z,40.46
2022-10-08T13:42:51.785Z,41.30
2022-10-08T13:45:22.001Z,41.01
2022-10-08T13:47:50.902Z,40.88
2022-10-08T13:50:19.554Z,41.21
2022-10-08T13:52:54.772Z,41.37
2022-10-08T13:55:31.456Z,40.92
2022-10-08T13:58:02.227Z,41.56
2022-10-08T14:00:31.749Z,41.85
2022-10-08T14:02:59.414Z,41.81
2022-10-08T14:05:30.223Z,41.88
2022-10-08T14:08:03.391Z,41.81
2022-10-08T14:10:33.567Z,40.56
2022-10-08T14:13:00.927Z,40.18
2022-10-08T14:15:29.933Z,40.32
2022-10-08T14:17:57.262Z,40.96
2022-10-08T14:20:25.584Z,39.85
2022-10-08T14:22:54.949Z,40.23
2022-10-08T14:25:25.751Z,40.16
2022-10-08T14:27:53.211Z,40.87
2022-10-08T14:30:21.435Z,40.40
2022-10-08T14:32:49.649Z,41.26
2022-10-08T14:35:17.394Z,41.66
2022-10-08T14:37:45.786Z,42.23
2022-10-08T14:40:21.968Z,42.07
2022-10-08T14:42:50.886Z,42.34
2022-10-08T14:45:18.926Z,42.41
2022-10-08T14:47:47.434Z,42.36
2022-10-08T14:50:15.732Z,41.85
2022-10-08T14:52:44.638Z,41.66
2022-10-08T14:55:13.333Z,41.68
2022-10-08T14:57:41.196Z,42.16
2022-10-08T15:00:09.659Z,42.33
2022-10-08T15:02:38.003Z,43.17
2022-10-08T15:05:07.899Z,42.87
2022-10-08T15:07:39.239Z,42.92
2022-10-08T15:10:07.195Z,43.13
2022-10-08T15:12:35.769Z,42.55
2022-10-08T15:15:03.646Z,42.79
2022-10-08T15:17:31.785Z,43.04
2022-10-08T15:20:00.454Z,43.26
2022-10-08T15:22:28.358Z,43.67
2022-10-08T15:24:55.744Z,43.83
2022-10-08T15:27:24.358Z,43.69
2022-10-08T15:29:52.479Z,43.04
2022-10-08T15:32:20.582Z,43.01
2022-10-08T15:34:47.965Z,43.00
2022-10-08T15:37:15.787Z,43.52
2022-10-08T15:39:43.352Z,42.98
2022-10-08T15:42:12.633Z,42.79
2022-10-08T15:44:46.349Z,43.35
2022-10-08T15:47:16.581Z,43.62
2022-10-08T15:49:45.920Z,43.80
2022-10-08T15:52:16.397Z,43.00
2022-10-08T15:54:44.480Z,42.85
2022-10-08T15:57:13.703Z,42.90
2022-10-08T15:59:42.501Z,42.92
2022-10-08T16:02:16.565Z,42.85
2022-10-08T16:04:48.451Z,42.81
2022-10-08T16:07:17.477Z,42.90
2022-10-08T16:09:46.393Z,42.75
2022-10-08T16:12:15.845Z,43.01
2022-10-08T16:14:43.265Z,43.16
2022-10-08T16:17:10.868Z,42.62
2022-10-08T16:19:38.491Z,42.10
2022-10-08T16:22:08.156Z,41.66
2022-10-08T16:24:36.736Z,41.77
2022-10-08T16:27:04.302Z,42.16
2022-10-08T16:29:32.502Z,42.46
2022-10-08T16:32:01.386Z,43.04
2022-10-08T16:34:28.901Z,43.38
2022-10-08T16:37:00.494Z,43.00
2022-10-08T16:39:28.088Z,42.93
2022-10-08T16:41:59.307Z,43.13
2022-10-08T16:44:28.140Z,43.20
2022-10-08T16:46:55.477Z,43.32
2022-10-08T16:49:25.800Z,43.51
2022-10-08T16:52:00.149Z,43.82
2022-10-08T16:54:28.939Z,43.99
2022-10-08T16:56:57.154Z,44.30
2022-10-08T16:59:28.245Z,44.63
2022-10-08T17:01:58.751Z,45.06
2022-10-08T17:04:27.917Z,45.41
2022-10-08T17:06:55.771Z,45.59
2022-10-08T17:09:23.649Z,45.80
2022-10-08T17:11:52.662Z,45.93
2022-10-08T17:14:20.114Z,46.06
2022-10-08T17:16:49.199Z,45.98
2022-10-08T17:19:17.139Z,46.53
2022-10-08T17:21:45.102Z,46.32
2022-10-08T17:24:14.086Z,46.99
2022-10-08T17:26:44.022Z,47.51
2022-10-08T17:29:12.997Z,48.01
2022-10-08T17:31:40.663Z,48.27
2022-10-08T17:34:09.443Z,48.43
2022-10-08T17:36:42.032Z,48.64
2022-10-08T17:39:13.930Z,48.54
2022-10-08T17:41:43.923Z,47.96
2022-10-08T17:44:12.151Z,48.30
2022-10-08T17:46:46.102Z,48.93
2022-10-08T17:49:20.900Z,49.54
2022-10-08T17:51:51.094Z,49.71
2022-10-08T17:54:20.652Z,50.12
2022-10-08T17:56:48.918Z,50.07
2022-10-08T17:59:19.890Z,50.05
2022-10-08T18:01:47.741Z,50.06
2022-10-08T18:04:18.442Z,50.17
2022-10-08T18:06:47.570Z,50.46
2022-10-08T18:09:21.144Z,51.04
2022-10-08T18:11:52.255Z,51.14
2022-10-08T18:14:22.219Z,51.66
2022-10-08T18:16:50.543Z,51.67
2022-10-08T18:19:19.108Z,52.19
2022-10-08T18:21:46.770Z,52.71
2022-10-08T18:24:15.111Z,53.46
2022-10-08T18:26:43.446Z,54.04
2022-10-08T18:29:13.717Z,54.78
2022-10-08T18:31:42.795Z,55.55
2022-10-08T18:34:17.369Z,56.25
2022-10-08T18:36:46.332Z,57.36
2022-10-08T18:39:18.092Z,57.97
2022-10-08T18:41:50.639Z,59.63
2022-10-08T18:44:21.612Z,60.39
2022-10-08T18:46:49.937Z,61.09
2022-10-08T18:49:22.271Z,61.84
2022-10-08T18:51:50.411Z,62.64
2022-10-08T18:54:17.900Z,63.38
2022-10-08T18:56:46.525Z,64.31
2022-10-08T18:59:16.456Z,64.79
2022-10-08T19:01:47.363Z,65.52
2022-10-08T19:04:20.681Z,66.42
2022-10-08T19:06:50.537Z,66.89
2022-10-08T19:09:18.154Z,67.83
2022-10-08T19:11:49.419Z,68.16
2022-10-08T19:14:20.168Z,69.23
2022-10-08T19:16:49.773Z,70.10
2022-10-08T19:19:28.220Z,71.73
2022-10-08T19:21:56.263Z,72.33
2022-10-08T19:24:25.647Z,73.05
2022-10-08T19:26:57.350Z,73.79
2022-10-08T19:29:29.484Z,73.65
2022-10-08T19:31:58.634Z,74.02
2022-10-08T19:34:27.230Z,74.37
2022-10-08T19:36:54.728Z,73.96
2022-10-08T19:39:29.132Z,74.94
2022-10-08T19:41:58.114Z,75.91
2022-10-08T19:44:26.047Z,75.45
2022-10-08T19:46:54.766Z,75.14
2022-10-08T19:49:22.606Z,74.96
2022-10-08T19:51:50.475Z,75.74
2022-10-08T19:54:19.414Z,76.12
2022-10-08T19:56:46.835Z,77.05
2022-10-08T19:59:14.246Z,77.73
2022-10-08T20:01:42.726Z,78.24
2022-10-08T20:04:10.699Z,79.20
2022-10-08T20:06:40.849Z,80.01
2022-10-08T20:09:12.138Z,81.03
2022-10-08T20:11:41.373Z,82.27
2022-10-08T20:14:09.621Z,81.95
2022-10-08T20:16:40.304Z,80.55
2022-10-08T20:19:20.713Z,80.48
2022-10-08T20:21:50.796Z,81.54
2022-10-08T20:24:19.774Z,81.62
2022-10-08T20:26:51.283Z,82.22
2022-10-08T20:29:23.648Z,82.62
2022-10-08T20:31:57.383Z,83.02
2022-10-08T20:34:28.721Z,82.79
2022-10-08T20:36:58.136Z,83.25
2022-10-08T20:39:25.878Z,84.07
2022-10-08T20:41:55.616Z,84.45
2022-10-08T20:44:23.090Z,84.36
2022-10-08T20:46:53.139Z,84.15
2022-10-08T20:49:20.683Z,83.99
2022-10-08T20:51:48.812Z,83.55
2022-10-08T20:54:16.959Z,84.62
2022-10-08T20:56:45.279Z,84.95
2022-10-08T20:59:18.532Z,85.24
2022-10-08T21:01:46.625Z,85.88
2022-10-08T21:04:14.186Z,86.13
2022-10-08T21:06:44.957Z,85.62
2022-10-08T21:09:13.755Z,85.61
2022-10-08T21:11:42.772Z,84.92
2022-10-08T21:14:11.363Z,85.50
2022-10-08T21:16:40.247Z,85.67
2022-10-08T21:19:12.478Z,85.84
2022-10-08T21:21:41.275Z,84.89
2022-10-08T21:24:09.547Z,84.07
2022-10-08T21:26:40.656Z,84.82
2022-10-08T21:29:11.592Z,84.77
2022-10-08T21:31:41.634Z,84.86
2022-10-08T21:34:10.410Z,84.38
2022-10-08T21:36:40.166Z,85.17
2022-10-08T21:39:10.749Z,85.26
2022-10-08T21:41:38.924Z,85.74
2022-10-08T21:44:08.017Z,85.48
2022-10-08T21:46:39.794Z,84.82
2022-10-08T21:49:14.383Z,85.09
2022-10-08T21:51:44.496Z,85.92
2022-10-08T21:54:12.596Z,86.69
2022-10-08T21:56:41.575Z,85.62
2022-10-08T21:59:14.395Z,85.49
2022-10-08T22:01:45.661Z,85.45
2022-10-08T22:04:24.531Z,85.75
2022-10-08T22:06:57.750Z,86.25
2022-10-08T22:09:29.672Z,85.91
2022-10-08T22:11:59.066Z,84.87
2022-10-08T22:14:27.240Z,83.87
2022-10-08T22:16:54.894Z,82.78
2022-10-08T22:19:23.250Z,83.12
2022-10-08T22:21:52.773Z,82.30
2022-10-08T22:24:20.231Z,81.88
2022-10-08T22:26:49.315Z,82.70
2022-10-08T22:29:16.785Z,82.76
2022-10-08T22:31:46.894Z,82.81
2022-10-08T22:34:16.996Z,83.20
2022-10-08T22:36:45.274Z,83.20
2022-10-08T22:39:13.508Z,82.64
2022-10-08T22:41:40.919Z,83.19
2022-10-08T22:44:08.644Z,82.95
2022-10-08T22:46:39.049Z,82.61
2022-10-08T22:49:07.907Z,82.98
2022-10-08T22:51:35.206Z,82.90
2022-10-08T22:54:02.406Z,82.96
2022-10-08T22:56:31.072Z,83.04
2022-10-08T22:59:00.698Z,82.84
2022-10-08T23:01:29.248Z,83.01
2022-10-08T23:03:56.875Z,82.72
2022-10-08T23:06:28.337Z,82.36
2022-10-08T23:08:56.661Z,82.75
2022-10-08T23:11:24.364Z,83.23
2022-10-08T23:13:53.402Z,82.83
2022-10-08T23:16:21.127Z,82.99
2022-10-08T23:18:59.240Z,83.00
2022-10-08T23:21:26.473Z,82.68
2022-10-08T23:23:56.038Z,82.32
2022-10-08T23:26:25.817Z,82.51
2022-10-08T23:28:54.339Z,81.69
2022-10-08T23:31:24.308Z,82.02
2022-10-08T23:33:52.198Z,82.09
2022-10-08T23:36:22.011Z,82.27
2022-10-08T23:38:49.352Z,82.69
2022-10-08T23:41:17.298Z,83.28
2022-10-08T23:43:45.974Z,83.23
2022-10-08T23:46:14.598Z,83.49
2022-10-08T23:48:42.243Z,83.98
2022-10-08T23:51:12.485Z,83.54
2022-10-08T23:53:40.411Z,83.40
2022-10-08T23:56:10.042Z,83.79
2022-10-08T23:58:37.804Z,84.44
